KOGB/OGB METAR and TAF weather

Enter ICAO airport designator
Station Type Date Time Source
KOGB METAR 2019/09/21 20:53 UTC NOAA

KOGB 212053Z AUTO VRB04KT 10SM CLR 29/09 A3021 RMK AO2 SLP227 T02940089 56021


Station Type Date Time Source
KOGB Decoded METAR 2019/09/21 20:53 UTC NOAA

ORANGEBURG MUNICIPAL AIRPORT, SC, United States (KOGB) 33-28N 080-51W 59M
Sep 21, 2019 - 04:53 PM EDT / 2019.09.21 2053 UTC
Wind: Variable at 5 MPH (4 KT):0
Visibility: 10 mile(s):0
Sky conditions: clear
Temperature: 84.9 F (29.4 C)
Dew Point: 48.0 F (8.9 C)
Relative Humidity: 27%
Pressure (altimeter): 30.21 in. Hg (1023 hPa)
Pressure tendency: 0.06 inches (2.1 hPa) lower than three hours ago
ob: KOGB 212053Z AUTO VRB04KT 10SM CLR 29/09 A3021 RMK AO2 SLP227 T02940089 56021
cycle: 21

Station Type Date Time Source
KOGB TAF 2019/09/21 21:36 UTC NOAA

KOGB 212035Z 2121/2218 VRB03KT P6SM FEW050

Example: see airport list